createdAt,value
2018-01-30T00:00:37.619Z,8.6
2018-01-30T00:01:37.677Z,8.59
2018-01-30T00:02:37.637Z,8.6
2018-01-30T00:03:37.635Z,8.58
2018-01-30T00:04:37.655Z,8.59
2018-01-30T00:05:37.647Z,8.58
2018-01-30T00:06:37.705Z,8.59
2018-01-30T00:07:37.826Z,8.58
2018-01-30T00:08:38.402Z,8.58
2018-01-30T00:09:37.668Z,8.57
2018-01-30T00:10:37.632Z,8.58
2018-01-30T00:11:37.677Z,8.58
2018-01-30T00:12:37.759Z,8.56
2018-01-30T00:13:37.845Z,8.56
2018-01-30T00:14:37.633Z,8.55
2018-01-30T00:15:37.710Z,8.56
2018-01-30T00:16:38.031Z,8.56
2018-01-30T00:17:37.643Z,8.56
2018-01-30T00:18:37.673Z,8.56
2018-01-30T00:19:37.806Z,8.55
2018-01-30T00:20:37.661Z,8.54
2018-01-30T00:21:37.856Z,8.54
2018-01-30T00:22:37.757Z,8.53
2018-01-30T00:23:37.747Z,8.53
2018-01-30T00:24:37.638Z,8.54
2018-01-30T00:25:37.691Z,8.51
2018-01-30T00:26:37.652Z,8.51
2018-01-30T00:27:37.849Z,8.49
2018-01-30T00:28:37.651Z,8.5
2018-01-30T00:29:37.656Z,8.47
2018-01-30T00:30:37.791Z,8.47
2018-01-30T00:31:37.739Z,8.45
2018-01-30T00:32:37.668Z,8.45
2018-01-30T00:33:37.697Z,8.43
2018-01-30T00:34:37.666Z,8.43
2018-01-30T00:35:37.899Z,8.43
2018-01-30T00:36:38.038Z,8.43
2018-01-30T00:37:37.706Z,8.43
2018-01-30T00:38:37.909Z,8.4
2018-01-30T00:39:37.738Z,8.41
2018-01-30T00:40:37.771Z,8.4
2018-01-30T00:41:37.722Z,8.4
2018-01-30T00:42:37.770Z,8.39
2018-01-30T00:43:37.698Z,8.39
2018-01-30T00:44:37.682Z,8.38
2018-01-30T00:45:37.691Z,8.37
2018-01-30T00:46:37.707Z,8.36
2018-01-30T00:47:37.727Z,8.36
2018-01-30T00:48:37.709Z,8.35
2018-01-30T00:49:37.786Z,8.34
2018-01-30T00:50:37.722Z,8.35
2018-01-30T00:51:37.699Z,8.34
2018-01-30T00:52:37.858Z,8.33
2018-01-30T00:53:37.687Z,8.32
2018-01-30T00:54:37.697Z,8.32
2018-01-30T00:55:37.677Z,8.33
2018-01-30T00:56:37.681Z,8.32
2018-01-30T00:57:37.703Z,8.33
2018-01-30T00:58:37.780Z,8.32
2018-01-30T00:59:37.725Z,8.31
2018-01-30T01:00:37.716Z,8.32
2018-01-30T01:01:37.705Z,8.32
2018-01-30T01:02:37.683Z,8.32
2018-01-30T01:03:37.691Z,8.31
2018-01-30T01:04:37.722Z,8.31
2018-01-30T01:05:37.705Z,8.3
2018-01-30T01:06:37.828Z,8.32
2018-01-30T01:07:37.718Z,8.3
2018-01-30T01:08:37.712Z,8.31
2018-01-30T01:09:37.703Z,8.31
2018-01-30T01:10:37.749Z,8.31
2018-01-30T01:11:37.777Z,8.32
2018-01-30T01:12:37.756Z,8.32
2018-01-30T01:13:37.743Z,8.32
2018-01-30T01:14:37.725Z,8.31
2018-01-30T01:15:38.005Z,8.32
2018-01-30T01:16:37.725Z,8.32
2018-01-30T01:17:37.867Z,8.32
2018-01-30T01:18:37.745Z,8.32
2018-01-30T01:19:37.716Z,8.31
2018-01-30T01:20:37.736Z,8.32
2018-01-30T01:21:37.719Z,8.32
2018-01-30T01:22:37.731Z,8.32
2018-01-30T01:23:37.991Z,8.32
2018-01-30T01:24:37.721Z,8.32
2018-01-30T01:25:37.791Z,8.31
2018-01-30T01:26:37.747Z,8.3
2018-01-30T01:27:37.719Z,8.3
2018-01-30T01:28:37.714Z,8.29
2018-01-30T01:29:37.733Z,8.28
2018-01-30T01:30:37.997Z,8.28
2018-01-30T01:31:38.050Z,8.28
2018-01-30T01:32:37.758Z,8.28
2018-01-30T01:33:38.714Z,8.29
2018-01-30T01:34:37.769Z,8.29
2018-01-30T01:35:37.723Z,8.28
2018-01-30T01:36:37.850Z,8.27
2018-01-30T01:37:37.790Z,8.28
2018-01-30T01:38:37.775Z,8.27
2018-01-30T01:39:37.756Z,8.28
2018-01-30T01:40:37.756Z,8.26
2018-01-30T01:41:37.803Z,8.27
2018-01-30T01:42:37.953Z,8.27
2018-01-30T01:43:37.749Z,8.28
2018-01-30T01:44:37.767Z,8.27
2018-01-30T01:45:37.787Z,8.26
2018-01-30T01:46:37.777Z,8.25
2018-01-30T01:47:38.760Z,8.24
2018-01-30T01:48:37.754Z,8.24
2018-01-30T01:49:38.413Z,8.24
2018-01-30T01:50:37.799Z,8.24
2018-01-30T01:51:37.784Z,8.19
2018-01-30T01:52:37.816Z,8.16
2018-01-30T01:53:37.772Z,8.12
2018-01-30T01:54:37.857Z,8.14
2018-01-30T01:55:37.792Z,8.14
2018-01-30T01:56:37.777Z,8.11
2018-01-30T01:57:37.756Z,8.1
2018-01-30T01:58:37.824Z,8.11
2018-01-30T01:59:37.779Z,8.07
2018-01-30T02:00:37.774Z,8.07
2018-01-30T02:01:37.750Z,8.07
2018-01-30T02:02:37.760Z,8.06
2018-01-30T02:03:37.764Z,8.05
2018-01-30T02:04:37.772Z,8.06
2018-01-30T02:05:37.768Z,8.05
2018-01-30T02:06:37.854Z,8.06
2018-01-30T02:07:37.837Z,8.06
2018-01-30T02:08:37.800Z,8.06
2018-01-30T02:09:37.843Z,8.05
2018-01-30T02:10:37.808Z,8.06
2018-01-30T02:11:37.932Z,8.06
2018-01-30T02:12:37.796Z,8.06
2018-01-30T02:13:37.806Z,8.05
2018-01-30T02:14:37.796Z,8.05
2018-01-30T02:15:37.792Z,8.05
2018-01-30T02:16:37.798Z,8.05
2018-01-30T02:17:37.830Z,8.06
2018-01-30T02:18:37.767Z,8.06
2018-01-30T02:19:38.554Z,8.05
2018-01-30T02:20:37.840Z,8.06
2018-01-30T02:21:37.811Z,8.04
2018-01-30T02:22:37.847Z,8.06
2018-01-30T02:23:38.857Z,8.06
2018-01-30T02:24:38.062Z,8.06
2018-01-30T02:25:38.309Z,8.03
2018-01-30T02:26:37.797Z,8.05
2018-01-30T02:27:37.797Z,8.05
2018-01-30T02:28:37.815Z,8.03
2018-01-30T02:29:37.814Z,8.03
2018-01-30T02:30:37.847Z,8.01
2018-01-30T02:31:37.794Z,8.03
2018-01-30T02:32:38.039Z,8
2018-01-30T02:33:37.800Z,8.01
2018-01-30T02:34:38.001Z,8.01
2018-01-30T02:35:37.812Z,8.03
2018-01-30T02:36:37.877Z,8.03
2018-01-30T02:37:37.865Z,8.02
2018-01-30T02:38:37.843Z,8.01
2018-01-30T02:39:37.842Z,8.03
2018-01-30T02:40:37.856Z,8.01
2018-01-30T02:41:37.958Z,8.01
2018-01-30T02:42:37.979Z,8
2018-01-30T02:43:38.324Z,8.02
2018-01-30T02:44:37.981Z,8.02
2018-01-30T02:45:37.916Z,8.01
2018-01-30T02:46:37.902Z,8.02
2018-01-30T02:47:37.966Z,7.99
2018-01-30T02:48:37.893Z,7.97
2018-01-30T02:49:37.882Z,7.98
2018-01-30T02:50:38.136Z,7.98
2018-01-30T02:51:37.860Z,7.97
2018-01-30T02:52:37.979Z,7.99
2018-01-30T02:53:37.854Z,7.98
2018-01-30T02:54:38.588Z,7.98
2018-01-30T02:55:38.008Z,7.98
2018-01-30T02:56:37.937Z,7.98
2018-01-30T02:57:37.861Z,8
2018-01-30T02:58:37.964Z,7.99
2018-01-30T02:59:37.862Z,7.96
2018-01-30T03:00:37.828Z,7.94
2018-01-30T03:01:37.856Z,7.93
2018-01-30T03:02:38.730Z,7.94
2018-01-30T03:03:37.864Z,7.91
2018-01-30T03:04:37.890Z,7.94
2018-01-30T03:05:38.172Z,7.92
2018-01-30T03:06:37.973Z,7.92
2018-01-30T03:07:36.933Z,7.92
2018-01-30T03:08:36.943Z,7.9
2018-01-30T03:09:36.968Z,7.87
2018-01-30T03:10:36.914Z,7.87
2018-01-30T03:11:36.917Z,7.85
2018-01-30T03:12:36.944Z,7.84
2018-01-30T03:13:36.940Z,7.82
2018-01-30T03:14:36.995Z,7.81
2018-01-30T03:15:37.089Z,7.85
2018-01-30T03:16:36.917Z,7.8
2018-01-30T03:17:37.070Z,7.79
2018-01-30T03:18:36.905Z,7.79
2018-01-30T03:19:37.002Z,7.78
2018-01-30T03:20:36.931Z,7.78
2018-01-30T03:21:36.918Z,7.76
2018-01-30T03:22:36.916Z,7.75
2018-01-30T03:23:36.949Z,7.74
2018-01-30T03:24:36.962Z,7.72
2018-01-30T03:25:36.920Z,7.72
2018-01-30T03:26:36.912Z,7.69
2018-01-30T03:27:36.916Z,7.67
2018-01-30T03:28:36.922Z,7.65
2018-01-30T03:29:36.933Z,7.63
2018-01-30T03:30:36.915Z,7.58
2018-01-30T03:31:36.901Z,7.55
2018-01-30T03:32:36.901Z,7.52
2018-01-30T03:33:36.919Z,7.51
2018-01-30T03:34:36.939Z,7.5
2018-01-30T03:35:36.933Z,7.46
2018-01-30T03:36:36.920Z,7.41
2018-01-30T03:37:37.014Z,7.37
2018-01-30T03:38:36.940Z,7.35
2018-01-30T03:39:37.090Z,7.35
2018-01-30T03:40:36.966Z,7.32
2018-01-30T03:41:36.967Z,7.29
2018-01-30T03:42:36.958Z,7.28
2018-01-30T03:43:36.955Z,7.27
2018-01-30T03:44:36.962Z,7.22
2018-01-30T03:45:36.953Z,7.21
2018-01-30T03:46:36.961Z,7.21
2018-01-30T03:47:36.953Z,7.17
2018-01-30T03:48:36.963Z,7.15
2018-01-30T03:49:36.970Z,7.13
2018-01-30T03:50:36.961Z,7.09
2018-01-30T03:51:36.959Z,7.08
2018-01-30T03:52:36.953Z,7.06
2018-01-30T03:53:36.940Z,7.05
2018-01-30T03:54:36.942Z,7.03
2018-01-30T03:55:36.924Z,7.02
2018-01-30T03:56:36.974Z,6.99
2018-01-30T03:57:36.963Z,7.02
2018-01-30T03:58:36.978Z,7.01
2018-01-30T03:59:36.974Z,6.98
2018-01-30T04:00:36.969Z,6.98
2018-01-30T04:01:36.939Z,6.96
2018-01-30T04:02:36.982Z,6.96
2018-01-30T04:03:37.106Z,6.93
2018-01-30T04:04:36.971Z,6.94
2018-01-30T04:05:36.976Z,6.9
2018-01-30T04:06:36.949Z,6.89
2018-01-30T04:07:37.019Z,6.86
2018-01-30T04:08:37.038Z,6.85
2018-01-30T04:09:36.988Z,6.87
2018-01-30T04:10:36.994Z,6.86
2018-01-30T04:11:37.727Z,6.83
2018-01-30T04:12:37.004Z,6.8
2018-01-30T04:13:36.998Z,6.8
2018-01-30T04:14:37.003Z,6.8
2018-01-30T04:15:36.981Z,6.78
2018-01-30T04:16:36.972Z,6.77
2018-01-30T04:17:37.006Z,6.77
2018-01-30T04:18:36.995Z,6.78
2018-01-30T04:19:36.985Z,6.74
2018-01-30T04:20:37.005Z,6.78
2018-01-30T04:21:37.000Z,6.75
2018-01-30T04:22:36.978Z,6.71
2018-01-30T04:23:37.016Z,6.71
2018-01-30T04:24:36.985Z,6.7
2018-01-30T04:25:36.992Z,6.71
2018-01-30T04:26:37.009Z,6.73
2018-01-30T04:27:37.007Z,6.73
2018-01-30T04:28:36.996Z,6.74
2018-01-30T04:29:37.002Z,6.76
2018-01-30T04:30:37.010Z,6.77
2018-01-30T04:31:37.000Z,6.75
2018-01-30T04:32:37.008Z,6.77
2018-01-30T04:33:36.993Z,6.76
2018-01-30T04:34:37.003Z,6.74
2018-01-30T04:35:37.016Z,6.74
2018-01-30T04:36:36.984Z,6.73
2018-01-30T04:37:37.074Z,6.7
2018-01-30T04:38:37.015Z,6.69
2018-01-30T04:39:37.035Z,6.69
2018-01-30T04:40:37.031Z,6.71
2018-01-30T04:41:37.029Z,6.71
2018-01-30T04:42:37.121Z,6.73
2018-01-30T04:43:37.050Z,6.75
2018-01-30T04:44:37.040Z,6.75
2018-01-30T04:45:37.015Z,6.75
2018-01-30T04:46:37.016Z,6.73
2018-01-30T04:47:37.020Z,6.76
2018-01-30T04:48:37.015Z,6.77
2018-01-30T04:49:37.031Z,6.76
2018-01-30T04:50:37.087Z,6.78
2018-01-30T04:51:37.069Z,6.78
2018-01-30T04:52:37.020Z,6.8
2018-01-30T04:53:37.027Z,6.8
2018-01-30T04:54:37.039Z,6.81
2018-01-30T04:55:37.037Z,6.8
2018-01-30T04:56:37.044Z,6.73
2018-01-30T04:57:37.047Z,6.67
2018-01-30T04:58:37.039Z,6.65
2018-01-30T04:59:37.054Z,6.62
2018-01-30T05:00:37.036Z,6.65
2018-01-30T05:01:37.032Z,6.61
2018-01-30T05:02:37.009Z,6.58
2018-01-30T05:03:37.041Z,6.6
2018-01-30T05:04:37.094Z,6.58
2018-01-30T05:05:37.045Z,6.57
2018-01-30T05:06:37.073Z,6.58
2018-01-30T05:07:37.145Z,6.52
2018-01-30T05:08:37.052Z,6.49
2018-01-30T05:09:37.098Z,6.48
2018-01-30T05:10:37.091Z,6.49
2018-01-30T05:11:37.117Z,6.49
2018-01-30T05:12:37.129Z,6.5
2018-01-30T05:13:37.074Z,6.5
2018-01-30T05:14:37.090Z,6.52
2018-01-30T05:15:37.058Z,6.51
2018-01-30T05:16:37.077Z,6.5
2018-01-30T05:17:37.073Z,6.51
2018-01-30T05:18:37.070Z,6.52
2018-01-30T05:19:37.079Z,6.52
2018-01-30T05:20:37.114Z,6.54
2018-01-30T05:21:37.088Z,6.53
2018-01-30T05:22:37.072Z,6.53
2018-01-30T05:23:37.111Z,6.54
2018-01-30T05:24:37.062Z,6.54
2018-01-30T05:25:37.094Z,6.55
2018-01-30T05:26:37.087Z,6.54
2018-01-30T05:27:37.070Z,6.53
2018-01-30T05:28:37.095Z,6.53
2018-01-30T05:29:37.084Z,6.53
2018-01-30T05:30:37.079Z,6.52
2018-01-30T05:31:37.102Z,6.51
2018-01-30T05:32:37.083Z,6.51
2018-01-30T05:33:37.096Z,6.51
2018-01-30T05:34:37.076Z,6.51
2018-01-30T05:35:37.084Z,6.5
2018-01-30T05:36:37.066Z,6.49
2018-01-30T05:39:48.718Z,6.45
2018-01-30T05:40:37.617Z,6.43
2018-01-30T05:41:37.612Z,6.44
2018-01-30T05:42:37.634Z,6.42
2018-01-30T05:43:37.636Z,6.41
2018-01-30T05:44:37.635Z,6.39
2018-01-30T05:45:37.707Z,6.37
2018-01-30T05:46:37.671Z,6.36
2018-01-30T05:47:37.608Z,6.35
2018-01-30T05:48:37.616Z,6.34
2018-01-30T05:49:37.684Z,6.34
2018-01-30T05:50:37.650Z,6.33
2018-01-30T05:51:37.625Z,6.29
2018-01-30T05:52:37.632Z,6.27
2018-01-30T05:53:37.642Z,6.23
2018-01-30T05:54:37.667Z,6.22
2018-01-30T05:55:37.648Z,6.21
2018-01-30T05:56:37.639Z,6.2
2018-01-30T05:57:37.673Z,6.19
2018-01-30T05:58:37.627Z,6.19
2018-01-30T05:59:37.633Z,6.16
2018-01-30T06:00:37.629Z,6.14
2018-01-30T06:01:37.680Z,6.13
2018-01-30T06:02:37.620Z,6.13
2018-01-30T06:03:37.638Z,6.12
2018-01-30T06:04:37.625Z,6.11
2018-01-30T06:05:37.633Z,6.09
2018-01-30T06:06:37.617Z,6.1
2018-01-30T06:08:37.684Z,6.09
2018-01-30T06:09:37.782Z,6.07
2018-01-30T06:10:37.768Z,6.08
2018-01-30T06:11:37.701Z,6.06
2018-01-30T06:12:37.676Z,6.06
2018-01-30T06:13:37.686Z,6.05
2018-01-30T06:14:37.752Z,6.03
2018-01-30T06:15:37.689Z,6.04
2018-01-30T06:16:37.682Z,6.03
2018-01-30T06:17:37.662Z,6.02
2018-01-30T06:18:37.669Z,6
2018-01-30T06:19:37.646Z,5.99
2018-01-30T06:20:37.654Z,5.99
2018-01-30T06:21:37.663Z,5.98
2018-01-30T06:22:37.666Z,5.97
2018-01-30T06:23:37.663Z,5.97
2018-01-30T06:24:37.663Z,5.96
2018-01-30T06:25:37.671Z,5.95
2018-01-30T06:26:37.718Z,5.95
2018-01-30T06:27:37.679Z,5.94
2018-01-30T06:28:37.689Z,5.93
2018-01-30T06:29:37.667Z,5.91
2018-01-30T06:30:37.681Z,5.9
2018-01-30T06:31:37.688Z,5.89
2018-01-30T06:32:37.656Z,5.87
2018-01-30T06:33:37.659Z,5.86
2018-01-30T06:34:37.669Z,5.85
2018-01-30T06:35:37.674Z,5.85
2018-01-30T06:36:37.690Z,5.84
2018-01-30T06:37:37.657Z,5.83
2018-01-30T06:38:37.658Z,5.81
2018-01-30T06:39:37.661Z,5.82
2018-01-30T06:40:37.880Z,5.79
2018-01-30T06:41:37.716Z,5.78
2018-01-30T06:42:37.735Z,5.75
2018-01-30T06:43:37.728Z,5.74
2018-01-30T06:44:37.747Z,5.71
2018-01-30T06:45:37.879Z,5.7
2018-01-30T06:46:37.713Z,5.69
2018-01-30T06:47:37.730Z,5.66
2018-01-30T06:48:37.715Z,5.65
2018-01-30T06:49:37.731Z,5.64
2018-01-30T06:50:37.728Z,5.65
2018-01-30T06:51:37.699Z,5.64
2018-01-30T06:52:37.718Z,5.64
2018-01-30T06:53:37.716Z,5.63
2018-01-30T06:54:37.712Z,5.63
2018-01-30T06:55:37.767Z,5.6
2018-01-30T06:56:37.704Z,5.57
2018-01-30T06:57:37.684Z,5.56
2018-01-30T06:58:37.842Z,5.55
2018-01-30T06:59:37.718Z,5.52
2018-01-30T07:00:38.027Z,5.49
2018-01-30T07:01:37.749Z,5.46
2018-01-30T07:02:37.708Z,5.45
2018-01-30T07:03:37.685Z,5.44
2018-01-30T07:04:37.722Z,5.43
2018-01-30T07:05:37.728Z,5.41
2018-01-30T07:06:37.725Z,5.41
2018-01-30T07:07:37.691Z,5.41
2018-01-30T07:08:37.735Z,5.41
2018-01-30T07:09:37.758Z,5.41
2018-01-30T07:10:37.788Z,5.41
2018-01-30T07:11:37.818Z,5.41
2018-01-30T07:12:37.810Z,5.4
2018-01-30T07:13:37.772Z,5.4
2018-01-30T07:14:37.745Z,5.39
2018-01-30T07:15:37.755Z,5.38
2018-01-30T07:16:37.732Z,5.35
2018-01-30T07:17:37.833Z,5.36
2018-01-30T07:18:37.777Z,5.36
2018-01-30T07:19:37.753Z,5.36
2018-01-30T07:20:37.743Z,5.36
2018-01-30T07:21:37.737Z,5.34
2018-01-30T07:22:37.785Z,5.32
2018-01-30T07:23:37.737Z,5.31
2018-01-30T07:24:37.733Z,5.31
2018-01-30T07:25:37.752Z,5.29
2018-01-30T07:26:37.771Z,5.27
2018-01-30T07:27:37.763Z,5.25
2018-01-30T07:28:37.734Z,5.22
2018-01-30T07:29:37.740Z,5.21
2018-01-30T07:30:37.757Z,5.18
2018-01-30T07:31:37.760Z,5.17
2018-01-30T07:32:37.743Z,5.16
2018-01-30T07:33:37.792Z,5.15
2018-01-30T07:34:38.033Z,5.14
2018-01-30T07:35:37.753Z,5.14
2018-01-30T07:36:37.762Z,5.13
2018-01-30T07:37:37.745Z,5.13
2018-01-30T07:38:37.774Z,5.13
2018-01-30T07:39:37.795Z,5.1
2018-01-30T07:40:37.804Z,5.11
2018-01-30T07:41:37.748Z,5.1
2018-01-30T07:42:37.779Z,5.11
2018-01-30T07:43:37.770Z,5.11
2018-01-30T07:44:37.779Z,5.12
2018-01-30T07:45:37.795Z,5.13
2018-01-30T07:46:37.757Z,5.14
2018-01-30T07:47:37.773Z,5.14
2018-01-30T07:48:37.782Z,5.14
2018-01-30T07:49:37.765Z,5.13
2018-01-30T07:50:37.806Z,5.11
2018-01-30T07:51:38.270Z,5.1
2018-01-30T07:52:37.758Z,5.07
2018-01-30T07:53:37.753Z,5.07
2018-01-30T07:54:37.795Z,5.09
2018-01-30T07:55:37.779Z,5.09
2018-01-30T07:56:37.810Z,5.1
2018-01-30T07:57:37.842Z,5.1
2018-01-30T07:58:37.777Z,5.11
2018-01-30T07:59:37.782Z,5.13
2018-01-30T08:00:37.767Z,5.15
2018-01-30T08:01:37.775Z,5.14
2018-01-30T08:02:37.837Z,5.13
2018-01-30T08:03:37.754Z,5.14
2018-01-30T08:04:37.757Z,5.14
2018-01-30T08:05:37.786Z,5.16
2018-01-30T08:06:37.804Z,5.17
2018-01-30T08:07:37.990Z,5.19
2018-01-30T08:08:37.767Z,5.19
2018-01-30T08:09:37.800Z,5.2
2018-01-30T08:10:37.824Z,5.21
2018-01-30T08:11:37.788Z,5.22
2018-01-30T08:12:38.625Z,5.23
2018-01-30T08:13:37.772Z,5.25
2018-01-30T08:14:37.807Z,5.26
2018-01-30T08:15:37.804Z,5.27
2018-01-30T08:16:37.846Z,5.27
2018-01-30T08:17:37.802Z,5.3
2018-01-30T08:18:37.806Z,5.33
2018-01-30T08:19:37.874Z,5.34
2018-01-30T08:20:37.791Z,5.37
2018-01-30T08:21:37.792Z,5.4
2018-01-30T08:22:37.812Z,5.41
2018-01-30T08:23:37.774Z,5.42
2018-01-30T08:24:37.788Z,5.44
2018-01-30T08:25:37.819Z,5.46
2018-01-30T08:26:37.790Z,5.49
2018-01-30T08:27:37.796Z,5.49
2018-01-30T08:28:37.792Z,5.46
2018-01-30T08:29:37.766Z,5.5
2018-01-30T08:30:37.789Z,5.52
2018-01-30T08:31:37.761Z,5.54
2018-01-30T08:32:37.776Z,5.55
2018-01-30T08:33:37.792Z,5.57
2018-01-30T08:34:37.788Z,5.58
2018-01-30T08:35:37.821Z,5.6
2018-01-30T08:36:37.814Z,5.63
2018-01-30T08:37:37.786Z,5.64
2018-01-30T08:38:37.775Z,5.66
2018-01-30T08:39:37.782Z,5.59
2018-01-30T08:40:37.873Z,5.61
2018-01-30T08:41:37.767Z,5.64
2018-01-30T08:42:37.781Z,5.66
2018-01-30T08:43:37.813Z,5.68
2018-01-30T08:44:37.759Z,5.69
2018-01-30T08:45:37.809Z,5.72
2018-01-30T08:46:37.813Z,5.73
2018-01-30T08:47:37.770Z,5.74
2018-01-30T08:48:37.817Z,5.76
2018-01-30T08:49:37.814Z,5.77
2018-01-30T08:50:37.773Z,5.77
2018-01-30T08:51:37.792Z,5.79
2018-01-30T08:52:37.856Z,5.8
2018-01-30T08:53:37.831Z,5.83
2018-01-30T08:54:37.811Z,5.84
2018-01-30T08:55:37.792Z,5.87
2018-01-30T08:56:37.870Z,5.88
2018-01-30T08:57:37.820Z,5.9
2018-01-30T08:58:37.775Z,5.9
2018-01-30T08:59:37.772Z,5.91
2018-01-30T09:00:37.799Z,5.92
2018-01-30T09:01:37.973Z,5.92
2018-01-30T09:02:37.775Z,5.93
2018-01-30T09:03:37.786Z,5.93
2018-01-30T09:04:37.785Z,5.95
2018-01-30T09:05:37.789Z,5.97
2018-01-30T09:06:37.834Z,6
2018-01-30T09:07:38.186Z,6.01
2018-01-30T09:08:37.801Z,6.01
2018-01-30T09:09:37.808Z,6.04
2018-01-30T09:10:37.957Z,6.04
2018-01-30T09:11:36.906Z,6.06
2018-01-30T09:12:36.857Z,6.07
2018-01-30T09:13:37.274Z,6.08
2018-01-30T09:14:36.870Z,6.1
2018-01-30T09:15:36.897Z,6.12
2018-01-30T09:16:36.862Z,6.12
2018-01-30T09:17:36.881Z,6.14
2018-01-30T09:18:37.065Z,6.14
2018-01-30T09:19:36.864Z,6.14
2018-01-30T09:20:36.882Z,6.14
2018-01-30T09:21:37.901Z,6.14
2018-01-30T09:22:36.883Z,6.14
2018-01-30T09:23:36.865Z,6.15
2018-01-30T09:24:36.860Z,6.15
2018-01-30T09:25:36.873Z,6.16
2018-01-30T09:26:36.886Z,6.17
2018-01-30T09:27:36.989Z,6.18
2018-01-30T09:28:36.892Z,6.2
2018-01-30T09:29:36.897Z,6.23
2018-01-30T09:30:36.858Z,6.25
2018-01-30T09:31:36.880Z,6.27
2018-01-30T09:32:37.781Z,6.29
2018-01-30T09:33:37.207Z,6.32
2018-01-30T09:34:36.895Z,6.35
2018-01-30T09:35:36.879Z,6.36
2018-01-30T09:36:36.881Z,6.38
2018-01-30T09:37:36.889Z,6.39
2018-01-30T09:38:36.891Z,6.41
2018-01-30T09:39:36.878Z,6.43
2018-01-30T09:40:36.998Z,6.47
2018-01-30T09:41:37.046Z,6.5
2018-01-30T09:42:37.010Z,6.51
2018-01-30T09:43:37.016Z,6.55
2018-01-30T09:44:37.012Z,6.56
2018-01-30T09:45:37.098Z,6.58
2018-01-30T09:46:37.013Z,6.6
2018-01-30T09:47:36.993Z,6.62
2018-01-30T09:48:37.000Z,6.64
2018-01-30T09:49:37.005Z,6.66
2018-01-30T09:50:37.547Z,6.68
2018-01-30T09:51:37.013Z,6.7
2018-01-30T09:52:37.017Z,6.74
2018-01-30T09:53:37.009Z,6.75
2018-01-30T09:54:37.011Z,6.77
2018-01-30T09:55:37.255Z,6.79
2018-01-30T09:56:36.992Z,6.82
2018-01-30T09:57:36.998Z,6.84
2018-01-30T09:58:37.018Z,6.89
2018-01-30T09:59:37.012Z,6.9
2018-01-30T10:00:38.412Z,6.92
2018-01-30T10:01:37.028Z,6.95
2018-01-30T10:02:36.994Z,6.96
2018-01-30T10:03:37.583Z,6.97
2018-01-30T10:04:37.016Z,7
2018-01-30T10:05:37.012Z,7.03
2018-01-30T10:06:37.068Z,7.07
2018-01-30T10:07:36.978Z,7.08
2018-01-30T10:08:37.337Z,7.08
2018-01-30T10:09:36.994Z,7.09
2018-01-30T10:10:37.006Z,7.11
2018-01-30T10:11:37.203Z,7.11
2018-01-30T10:12:37.122Z,7.11
2018-01-30T10:13:37.166Z,7.11
2018-01-30T10:14:37.449Z,7.09
2018-01-30T10:15:37.144Z,7.11
2018-01-30T10:16:37.140Z,7.11
2018-01-30T10:17:37.128Z,7.13
2018-01-30T10:18:37.159Z,7.14
2018-01-30T10:19:37.432Z,7.12
2018-01-30T10:20:37.454Z,7.11
2018-01-30T10:21:37.151Z,7.12
2018-01-30T10:22:37.151Z,7.14
2018-01-30T10:23:37.155Z,7.16
2018-01-30T10:24:37.130Z,7.19
2018-01-30T10:25:37.368Z,7.21
2018-01-30T10:26:37.116Z,7.22
2018-01-30T10:27:37.170Z,7.22
2018-01-30T10:28:37.226Z,7.24
2018-01-30T10:29:37.136Z,7.26
2018-01-30T10:30:37.134Z,7.28
2018-01-30T10:31:38.018Z,7.29
2018-01-30T10:32:37.911Z,7.29
2018-01-30T10:33:37.141Z,7.3
2018-01-30T10:34:37.154Z,7.32
2018-01-30T10:35:37.136Z,7.34
2018-01-30T10:36:37.266Z,7.36
2018-01-30T10:37:37.800Z,7.37
2018-01-30T10:38:37.144Z,7.38
2018-01-30T10:39:37.131Z,7.41
2018-01-30T10:40:37.125Z,7.42
2018-01-30T10:41:37.712Z,7.43
2018-01-30T10:42:38.186Z,7.45
2018-01-30T10:43:37.675Z,7.47
2018-01-30T10:44:37.429Z,7.48
2018-01-30T10:45:37.411Z,7.49
2018-01-30T10:46:37.395Z,7.51
2018-01-30T10:47:37.385Z,7.54
2018-01-30T10:48:37.430Z,7.54
2018-01-30T10:49:37.426Z,7.55
2018-01-30T10:50:37.424Z,7.58
2018-01-30T10:51:37.399Z,7.59
2018-01-30T10:52:37.474Z,7.58
2018-01-30T10:53:37.496Z,7.6
2018-01-30T10:54:37.440Z,7.61
2018-01-30T10:55:38.547Z,7.63
2018-01-30T10:56:37.551Z,7.61
2018-01-30T10:57:37.458Z,7.61
2018-01-30T10:58:37.436Z,7.61
2018-01-30T10:59:37.381Z,7.61
2018-01-30T11:00:37.559Z,7.57
2018-01-30T11:01:37.856Z,7.58
2018-01-30T11:02:37.448Z,7.6
2018-01-30T11:03:37.424Z,7.62
2018-01-30T11:04:37.464Z,7.68
2018-01-30T11:05:37.423Z,7.7
2018-01-30T11:06:38.135Z,7.71
2018-01-30T11:07:37.391Z,7.74
2018-01-30T11:08:37.431Z,7.79
2018-01-30T11:09:37.508Z,7.78
2018-01-30T11:10:37.396Z,7.74
2018-01-30T11:11:37.862Z,7.76
2018-01-30T11:12:37.542Z,7.78
2018-01-30T11:13:37.475Z,7.83
2018-01-30T11:14:37.524Z,7.82
2018-01-30T11:15:37.526Z,7.87
2018-01-30T11:16:38.612Z,7.9
2018-01-30T11:17:37.478Z,7.8
2018-01-30T11:18:37.757Z,7.85
2018-01-30T11:19:37.476Z,7.86
2018-01-30T11:20:37.462Z,7.9
2018-01-30T11:21:37.467Z,7.92
2018-01-30T11:22:37.543Z,7.97
2018-01-30T11:23:37.502Z,8.04
2018-01-30T11:24:37.478Z,7.93
2018-01-30T11:25:37.484Z,7.91
2018-01-30T11:26:37.491Z,7.92
2018-01-30T11:27:37.768Z,7.93
2018-01-30T11:28:37.467Z,7.97
2018-01-30T11:29:37.492Z,7.97
2018-01-30T11:30:37.460Z,7.98
2018-01-30T11:31:37.490Z,8.01
2018-01-30T11:32:37.676Z,8.03
2018-01-30T11:33:37.460Z,8.04
2018-01-30T11:34:37.473Z,8.06
2018-01-30T11:35:37.494Z,8.07
2018-01-30T11:36:37.471Z,8.09
2018-01-30T11:37:37.513Z,8.11
2018-01-30T11:38:37.494Z,8.12
2018-01-30T11:39:37.458Z,8.14
2018-01-30T11:40:37.481Z,8.14
2018-01-30T11:41:38.241Z,8.15
2018-01-30T11:42:37.269Z,8.15
2018-01-30T11:43:37.221Z,8.15
2018-01-30T11:44:37.242Z,8.17
2018-01-30T11:45:37.253Z,8.2
2018-01-30T11:46:37.208Z,8.24
2018-01-30T11:47:37.214Z,8.23
2018-01-30T11:48:37.235Z,8.25
2018-01-30T11:49:37.266Z,8.26
2018-01-30T11:50:37.245Z,8.26
2018-01-30T11:51:37.195Z,8.27
2018-01-30T11:52:37.211Z,8.27
2018-01-30T11:53:37.226Z,8.27
2018-01-30T11:54:37.338Z,8.27
2018-01-30T11:55:37.211Z,8.27
2018-01-30T11:56:37.237Z,8.27
2018-01-30T11:57:37.224Z,8.26
2018-01-30T11:58:37.228Z,8.24
2018-01-30T11:59:37.689Z,8.23
2018-01-30T12:00:37.236Z,8.23
2018-01-30T12:01:37.241Z,8.24
2018-01-30T12:02:37.249Z,8.25
2018-01-30T12:03:37.244Z,8.25
2018-01-30T12:04:37.519Z,8.25
2018-01-30T12:05:37.420Z,8.26
2018-01-30T12:06:37.223Z,8.25
2018-01-30T12:07:37.229Z,8.25
2018-01-30T12:08:37.239Z,8.27
2018-01-30T12:09:37.212Z,8.29
2018-01-30T12:10:37.292Z,8.27
2018-01-30T12:11:37.247Z,8.29
2018-01-30T12:12:37.455Z,8.32
2018-01-30T12:13:37.431Z,8.34
2018-01-30T12:14:37.366Z,8.34
2018-01-30T12:15:37.366Z,8.35
2018-01-30T12:16:37.393Z,8.38
2018-01-30T12:17:37.358Z,8.42
2018-01-30T12:18:37.385Z,8.4
2018-01-30T12:19:37.379Z,8.44
2018-01-30T12:20:37.430Z,8.46
2018-01-30T12:21:37.353Z,8.51
2018-01-30T12:22:37.398Z,8.54
2018-01-30T12:23:37.391Z,8.57
2018-01-30T12:24:37.388Z,8.58
2018-01-30T12:25:37.399Z,8.54
2018-01-30T12:26:37.382Z,8.57
2018-01-30T12:27:37.378Z,8.57
2018-01-30T12:28:37.374Z,8.59
2018-01-30T12:29:37.382Z,8.6
2018-01-30T12:30:37.358Z,8.59
2018-01-30T12:31:37.355Z,8.59
2018-01-30T12:32:37.389Z,8.6
2018-01-30T12:33:37.907Z,8.6
2018-01-30T12:34:37.386Z,8.61
2018-01-30T12:35:37.393Z,8.63
2018-01-30T12:36:37.449Z,8.65
2018-01-30T12:37:37.454Z,8.69
2018-01-30T12:38:37.365Z,8.72
2018-01-30T12:39:37.386Z,8.76
2018-01-30T12:40:37.374Z,8.78
2018-01-30T12:41:37.535Z,8.79
2018-01-30T12:42:37.782Z,8.81
2018-01-30T12:43:37.412Z,8.85
2018-01-30T12:44:37.431Z,8.86
2018-01-30T12:45:37.441Z,8.91
2018-01-30T12:46:37.415Z,8.87
2018-01-30T12:47:37.463Z,8.87
2018-01-30T12:48:37.406Z,8.9
2018-01-30T12:49:37.408Z,8.93
2018-01-30T12:50:37.439Z,8.94
2018-01-30T12:51:37.544Z,8.95
2018-01-30T12:52:37.403Z,8.96
2018-01-30T12:53:37.450Z,8.97
2018-01-30T12:54:37.407Z,8.94
2018-01-30T12:55:37.433Z,8.95
2018-01-30T12:56:37.500Z,8.95
2018-01-30T12:57:37.385Z,8.95
2018-01-30T12:58:37.434Z,8.96
2018-01-30T12:59:37.462Z,8.96
2018-01-30T13:00:37.396Z,9
2018-01-30T13:01:37.458Z,9.01
2018-01-30T13:02:37.419Z,9
2018-01-30T13:03:37.431Z,8.96
2018-01-30T13:04:37.428Z,8.95
2018-01-30T13:05:37.390Z,8.95
2018-01-30T13:06:37.407Z,8.97
2018-01-30T13:07:37.395Z,8.98
2018-01-30T13:08:37.421Z,8.98
2018-01-30T13:09:37.427Z,9
2018-01-30T13:10:37.401Z,9.02
2018-01-30T13:11:37.407Z,9.03
2018-01-30T13:12:37.594Z,9.04
2018-01-30T13:13:37.566Z,9.07
2018-01-30T13:14:37.544Z,9.06
2018-01-30T13:15:37.602Z,9.03
2018-01-30T13:16:37.584Z,9.01
2018-01-30T13:17:37.580Z,9.01
2018-01-30T13:18:37.829Z,9.03
2018-01-30T13:19:37.575Z,9.04
2018-01-30T13:20:37.578Z,9.07
2018-01-30T13:21:37.586Z,9.1
2018-01-30T13:22:37.580Z,9.12
2018-01-30T13:23:37.610Z,9.14
2018-01-30T13:24:37.796Z,9.15